Latest Weather Observations for Salmon Gums RS

IDW60801

Issued at 1:43 pm WST Sunday 18 November 2018 (issued every 10 minutes, with the page automatically refreshed every 10 minutes)

About weather observations | Map of weather stations | Latest weather observations for WA | Other Formats
Station Details ID: 012071 Name: SALMON GUMS RES.STN. Lat: -32.99 Lon: 121.62 Height: 249.0 m
Data from the previous 72 hours. | See also: Recent months at Salmon Gums RS
Date/Time
WST
Temp
°C
App
Temp
°C
Dew
Point
°C
Rel
Hum
%
Delta-T
°C
Wind Press
QNH
hPa
Press
MSL
hPa
Rain since
9am
mm
Dir  Spd
km/h
Gust
km/h
Spd
kts
Gust
kts
18/01:30pm 25.4 21.4 8.4 34 9.2 WSW 19 35 10 19 - - 0.0
18/01:00pm 24.5 21.5 9.3 38 8.4 WSW 15 26 8 14 - - 0.0
18/12:30pm 24.8 22.5 10.3 40 8.1 W 13 28 7 15 - - 0.0
18/12:00pm 23.7 21.7 11.4 46 7.0 WSW 13 24 7 13 - - 0.0
18/11:30am 22.7 20.4 11.7 49 6.2 WSW 15 28 8 15 - - 0.0
18/11:00am 21.7 19.4 11.7 53 5.6 WSW 15 26 8 14 - - 0.0
18/10:30am 20.6 17.6 11.8 57 5.0 SW 19 30 10 16 - - 0.0
18/10:00am 19.8 16.7 11.6 59 4.6 SW 19 32 10 17 - - 0.0
18/09:30am 20.2 17.8 12.7 62 4.3 SW 17 24 9 13 - - 0.0
18/09:00am 18.7 15.8 12.2 66 3.7 SSW 19 28 10 15 - - 4.0
18/08:30am 18.0 15.3 12.9 72 2.9 WSW 19 28 10 15 - - 4.0
18/08:00am 17.0 13.9 11.7 71 2.9 SW 19 28 10 15 - - 4.0
18/07:30am 16.1 12.8 11.7 75 2.4 SW 20 30 11 16 - - 4.0
18/07:00am 15.8 13.1 11.8 77 2.2 SW 17 28 9 15 - - 4.0
18/06:30am 15.6 13.2 12.5 82 1.7 SW 17 26 9 14 - - 4.0
18/06:00am 15.4 14.3 13.2 87 1.2 SW 11 19 6 10 - - 4.0
18/05:30am 15.0 12.7 13.0 88 1.1 SW 17 24 9 13 - - 4.0
18/05:00am 15.3 13.8 13.2 87 1.2 SW 13 26 7 14 - - 4.0
18/04:30am 15.8 14.9 13.6 87 1.2 SW 11 20 6 11 - - 4.0
18/04:00am 15.7 13.9 13.4 86 1.3 SW 15 22 8 12 - - 4.0
18/03:30am 16.2 15.0 13.9 86 1.3 SW 13 17 7 9 - - 4.0
18/03:00am 16.3 14.7 14.0 86 1.3 SSW 15 24 8 13 - - 4.0
18/02:30am 16.7 15.7 14.5 87 1.3 SSW 13 22 7 12 - - 4.0
18/02:00am 16.6 16.1 13.9 84 1.5 SW 9 13 5 7 - - 4.0
18/01:30am 17.2 17.0 13.5 79 2.1 SSW 7 13 4 7 - - 4.0
18/01:00am 17.8 16.8 13.5 76 2.5 SW 11 19 6 10 - - 4.0
18/12:30am 18.6 17.2 13.5 72 2.9 SW 13 20 7 11 - - 4.0
18/12:00am 19.4 18.4 13.3 68 3.5 SW 11 19 6 10 - - 4.0
 
Date/Time
WST
Temp
°C
App
Temp
°C
Dew
Point
°C
Rel
Hum
%
Delta-T
°C
Wind Press
QNH
hPa
Press
MSL
hPa
Rain since
9am
mm
Dir  Spd
km/h
Gust
km/h
Spd
kts
Gust
kts
17/11:30pm 20.2 19.6 13.4 65 3.9 SW 9 13 5 7 - - 4.0
17/11:00pm 19.3 20.1 15.8 80 2.1 SSW 6 7 3 4 - - 4.0
17/10:30pm 19.4 20.9 15.7 79 2.2 NNE 2 9 1 5 - - 4.0
17/10:00pm 20.3 21.5 15.9 76 2.7 WSW 4 6 2 3 - - 4.0
17/09:30pm 20.6 21.5 16.0 75 2.8 NNE 6 7 3 4 - - 4.0
17/09:00pm 20.2 20.7 15.6 75 2.8 NNE 7 9 4 5 - - 4.0
17/08:30pm 20.1 21.4 16.1 78 2.4 NE 4 6 2 3 - - 4.0
17/08:00pm 21.1 21.7 15.4 70 3.4 NNE 6 11 3 6 - - 4.0
17/07:30pm 23.3 21.7 16.1 64 4.4 N 19 33 10 18 - - 4.0
17/07:00pm 20.0 21.6 16.8 82 2.0 NNW 4 6 2 3 - - 4.0
17/06:30pm 21.4 20.2 15.0 67 3.8 NNE 15 43 8 23 - - 4.0
17/06:22pm 21.5 16.8 14.2 63 4.3 N 32 56 17 30 - - 2.2
17/06:17pm 23.6 21.5 14.6 57 5.4 N 19 50 10 27 - - 1.0
17/06:00pm 28.2 26.6 11.7 36 9.6 NNE 11 17 6 9 - - 0.0
17/05:30pm 29.4 28.1 13.6 38 9.5 NE 13 22 7 12 - - 0.0
17/05:16pm 32.1 30.6 11.8 29 12.0 NW 11 57 6 31 - - 0.0
17/05:00pm 34.6 31.0 6.8 18 15.4 WNW 15 24 8 13 - - 0.0
17/04:30pm 36.3 32.1 5.5 15 16.9 NW 17 24 9 13 - - 0.0
17/04:00pm 35.8 31.8 5.1 15 16.7 WNW 15 28 8 15 - - 0.0
17/03:30pm 36.4 31.8 3.6 13 17.5 NNW 17 24 9 13 - - 0.0
17/03:00pm 36.1 32.0 4.4 14 17.1 NNW 15 24 8 13 - - 0.0
17/02:30pm 35.6 31.1 4.0 14 16.9 NNW 17 26 9 14 - - 0.0
17/02:00pm 35.0 29.8 3.5 14 16.6 NNW 20 32 11 17 - - 0.0
17/01:30pm 35.1 31.0 4.6 15 16.4 NNW 15 28 8 15 - - 0.0
17/01:00pm 34.8 29.8 4.4 15 16.3 N 20 33 11 18 - - 0.0
17/12:30pm 35.1 28.8 3.6 14 16.7 N 26 41 14 22 - - 0.0
17/12:00pm 34.5 28.3 4.1 15 16.2 N 26 41 14 22 - - 0.0
17/11:30am 34.4 29.1 5.0 16 15.8 NNE 22 39 12 21 - - 0.0
17/11:00am 32.5 26.3 4.3 17 14.9 NNE 26 35 14 19 - - 0.0
17/10:30am 32.1 25.3 3.1 16 15.0 NNE 28 50 15 27 - - 0.0
17/10:20am 31.8 25.1 3.8 17 14.6 NE 28 46 15 25 - - 0.0
17/10:00am 30.8 24.9 3.8 18 14.0 NNE 24 39 13 21 - - 0.0
17/09:30am 29.6 22.9 3.6 19 13.3 NE 28 43 15 23 - - 0.0
17/09:00am 28.9 23.2 5.1 22 12.5 NE 24 43 13 23 - - 0.0
17/08:30am 26.8 21.0 6.2 27 10.9 NE 26 43 14 23 - - 0.0
17/08:00am 24.5 19.5 6.3 31 9.5 ENE 22 35 12 19 - - 0.0
17/07:30am 23.4 19.1 7.1 35 8.6 ENE 19 32 10 17 - - 0.0
17/07:00am 22.9 19.4 8.6 40 7.7 ENE 17 24 9 13 - - 0.0
17/06:30am 22.5 19.8 9.0 42 7.3 E 13 19 7 10 - - 0.0
17/06:00am 19.9 18.1 10.9 56 5.0 ENE 11 13 6 7 - - 0.0
17/05:30am 20.8 20.5 10.0 50 5.9 S 2 4 1 2 - - 0.0
17/05:00am 21.4 19.1 10.6 50 6.0 SE 13 26 7 14 - - 0.0
17/04:30am 19.6 18.7 10.6 56 4.9 E 6 9 3 5 - - 0.0
17/04:00am 20.2 18.9 10.0 52 5.5 NE 7 9 4 5 - - 0.0
17/03:30am 20.4 18.4 10.2 52 5.6 ENE 11 20 6 11 - - 0.0
17/03:00am 19.9 18.5 10.9 56 5.0 ESE 9 13 5 7 - - 0.0
17/02:30am 19.6 18.0 11.4 59 4.6 E 11 15 6 8 - - 0.0
17/02:00am 21.9 20.7 10.4 48 6.4 ESE 7 13 4 7 - - 0.0
17/01:30am 21.6 19.9 11.3 52 5.8 NE 11 17 6 9 - - 0.0
17/01:00am 21.1 19.8 11.4 54 5.4 ENE 9 15 5 8 - - 0.0
17/12:30am 21.9 19.5 11.3 51 6.0 ENE 15 22 8 12 - - 0.0
17/12:00am 22.0 19.8 12.0 53 5.7 E 15 24 8 13 - - 0.0
 
Date/Time
WST
Temp
°C
App
Temp
°C
Dew
Point
°C
Rel
Hum
%
Delta-T
°C
Wind Press
QNH
hPa
Press
MSL
hPa
Rain since
9am
mm
Dir  Spd
km/h
Gust
km/h
Spd
kts
Gust
kts
16/11:30pm 20.9 20.2 14.3 66 3.9 SSE 11 15 6 8 - - 0.0
16/11:00pm 20.6 19.1 16.4 77 2.6 ESE 19 26 10 14 - - 0.0
16/10:30pm 20.2 20.9 15.6 75 2.8 NE 6 13 3 7 - - 0.0
16/10:00pm 21.6 21.6 15.2 67 3.8 S 9 17 5 9 - - 0.0
16/09:30pm 22.1 22.4 14.5 62 4.5 ESE 6 13 3 7 - - 0.0
16/09:00pm 23.7 23.0 14.4 56 5.6 W 11 32 6 17 - - 0.0
16/08:30pm 22.5 22.8 14.4 60 4.8 ENE 6 13 3 7 - - 0.0
16/08:00pm 22.1 21.6 15.0 64 4.3 ESE 11 17 6 9 - - 0.0
16/07:30pm 21.9 21.2 15.3 66 4.0 SE 13 17 7 9 - - 0.0
16/07:00pm 23.0 22.6 15.1 61 4.8 SE 11 15 6 8 - - 0.0
16/06:30pm 23.4 22.3 15.2 60 5.0 SE 15 24 8 13 - - 0.0
16/06:00pm 24.3 22.8 15.2 57 5.5 SE 17 22 9 12 - - 0.0
16/05:30pm 27.2 25.1 14.6 46 7.7 SE 19 26 10 14 - - 0.0
16/05:00pm 30.0 27.6 10.0 29 11.4 SE 13 17 7 9 - - 0.0
16/04:30pm 30.1 28.2 10.6 30 11.3 SSE 11 17 6 9 - - 0.0
16/04:00pm 29.9 28.2 9.9 29 11.4 SE 9 13 5 7 - - 0.0
16/03:30pm 29.8 28.3 10.4 30 11.1 SSE 9 17 5 9 - - 0.0
16/03:00pm 29.3 27.1 10.9 32 10.6 S 13 19 7 10 - - 0.0
16/02:30pm 29.2 27.1 9.9 30 11.0 SE 11 17 6 9 - - 0.0
16/02:00pm 28.9 27.4 9.1 29 11.1 SE 7 11 4 6 - - 0.0
16/01:30pm 29.1 27.3 9.3 29 11.1 S 9 19 5 10 - - 0.0
16/01:00pm 28.8 27.9 10.5 32 10.5 SSE 6 17 3 9 - - 0.0
16/12:30pm 27.9 26.8 10.6 34 9.9 SSW 7 13 4 7 - - 0.0
16/12:00pm 25.6 25.3 11.4 41 8.1 S 4 9 2 5 - - 0.0
16/11:30am 24.8 23.9 11.4 43 7.6 ENE 7 19 4 10 - - 0.0
16/11:00am 24.5 24.1 12.5 47 7.0 E 6 13 3 7 - - 0.0
16/10:30am 22.5 22.5 13.6 57 5.2 ESE 6 13 3 7 - - 0.0
16/10:00am 21.5 21.2 13.4 60 4.7 ESE 7 17 4 9 - - 0.0
16/09:30am 20.7 19.4 13.6 64 4.1 ENE 13 20 7 11 - - 0.0
16/09:00am 19.2 18.3 13.8 71 3.1 ENE 11 17 6 9 - - 0.0
16/08:30am 18.9 18.5 14.0 73 2.8 E 9 13 5 7 - - 0.0
16/08:00am 18.2 18.1 13.9 76 2.5 SSE 7 11 4 6 - - 0.0
16/07:30am 17.6 17.6 13.7 78 2.2 SE 6 7 3 4 - - 0.0
16/07:00am 17.0 16.9 13.9 82 1.8 SSE 7 17 4 9 - - 0.0
16/06:30am 16.6 15.8 13.9 84 1.5 SE 11 17 6 9 - - 0.0
16/06:00am 16.3 15.5 14.0 86 1.3 SE 11 17 6 9 - - 0.0
16/05:30am 15.8 14.5 13.6 87 1.2 SE 13 19 7 10 - - 0.0
16/05:00am 15.7 13.6 13.5 87 1.2 SE 17 24 9 13 - - 0.0
16/04:30am 15.7 13.9 13.4 86 1.3 ESE 15 22 8 12 - - 0.0
16/04:00am 15.7 13.9 13.4 86 1.3 SE 15 22 8 12 - - 0.0
16/03:30am 15.7 13.2 13.4 86 1.3 SE 19 26 10 14 - - 0.0
16/03:00am 15.7 13.2 13.4 86 1.3 SSE 19 28 10 15 - - 0.0
16/02:30am 15.8 14.0 13.3 85 1.4 SSE 15 24 8 13 - - 0.0
16/02:00am 15.9 13.7 13.4 85 1.4 SSE 17 28 9 15 - - 0.0
16/01:30am 15.9 14.1 13.4 85 1.4 SSE 15 26 8 14 - - 0.0
16/01:00am 15.8 13.3 13.5 86 1.3 SSE 19 30 10 16 - - 0.0
16/12:30am 15.7 13.0 13.4 86 1.3 S 20 28 11 15 - - 0.0
16/12:00am 15.6 13.1 13.4 87 1.2 SSE 19 30 10 16 - - 0.0
 
Date/Time
WST
Temp
°C
App
Temp
°C
Dew
Point
°C
Rel
Hum
%
Delta-T
°C
Wind Press
QNH
hPa
Press
MSL
hPa
Rain since
9am
mm
Dir  Spd
km/h
Gust
km/h
Spd
kts
Gust
kts
15/11:30pm 15.5 13.3 13.3 87 1.2 S 17 26 9 14 - - 0.0
15/11:00pm 15.6 13.0 13.3 86 1.3 S 19 28 10 15 - - 0.0
15/10:30pm 16.0 13.9 13.5 85 1.4 S 17 26 9 14 - - 0.0
15/10:00pm 16.3 13.8 13.6 84 1.5 SSW 19 28 10 15 - - 0.0
15/09:30pm 16.7 14.5 13.2 80 2.0 S 17 28 9 15 - - 0.0
15/09:00pm 17.3 14.6 13.0 76 2.4 S 19 30 10 16 - - 0.0
15/08:30pm 18.3 15.3 12.5 69 3.3 S 20 32 11 17 - - 0.0
15/08:00pm 19.3 15.5 12.3 64 4.0 SSW 24 35 13 19 - - 0.0
15/07:30pm 20.4 16.7 11.6 57 4.9 SSW 22 35 12 19 - - 0.0
15/07:00pm 21.7 18.4 11.7 53 5.6 S 20 32 11 17 - - 0.0
15/06:30pm 22.8 18.2 11.2 48 6.5 S 26 39 14 21 - - 0.0
15/06:20pm 23.2 18.2 10.9 46 6.9 S 28 48 15 26 - - 0.0
15/06:00pm 24.0 18.5 10.7 43 7.5 SSW 30 43 16 23 - - 0.0
15/05:30pm 26.0 21.0 11.0 39 8.5 SSW 28 41 15 22 - - 0.0
15/05:00pm 27.9 22.7 10.1 33 10.1 SSW 28 48 15 26 - - 0.0
15/04:54pm 28.6 23.3 9.8 31 10.6 SSW 28 46 15 25 - - 0.0
15/04:30pm 30.9 25.7 10.3 28 11.9 SSW 28 43 15 23 - - 0.0
15/04:29pm 31.1 25.9 10.4 28 12.0 SSW 28 37 15 20 - - 0.0
15/04:00pm 33.4 30.6 5.0 17 15.2 W 9 15 5 8 - - 0.0
15/03:30pm 33.3 30.1 5.0 17 15.2 NNW 11 22 6 12 - - 0.0
15/03:00pm 32.9 30.1 7.0 20 14.3 NW 11 17 6 9 - - 0.0
15/02:30pm 33.6 29.5 6.0 18 15.1 NW 17 30 9 16 - - 0.0
15/02:00pm 34.4 30.8 6.7 18 15.3 NW 15 28 8 15 - - 0.0

Other Formats:

Comma delimited format used in spreadsheet applications
http://www.bom.gov.au/fwo/IDW60801/IDW60801.95639.axf

JavaScript Object Notation format (JSON) in row-major order
http://www.bom.gov.au/fwo/IDW60801/IDW60801.95639.json